createdAt,value
2018-12-19T00:00:56.333Z,1.50
2018-12-19T00:03:34.678Z,1.50
2018-12-19T00:06:18.442Z,1.50
2018-12-19T00:09:03.371Z,1.40
2018-12-19T00:11:49.232Z,1.40
2018-12-19T00:14:29.128Z,1.30
2018-12-19T00:17:09.427Z,1.30
2018-12-19T00:19:49.274Z,1.30
2018-12-19T00:22:27.202Z,1.30
2018-12-19T00:25:03.972Z,1.30
2018-12-19T00:27:43.540Z,1.30
2018-12-19T00:30:18.821Z,1.40
2018-12-19T00:33:02.373Z,1.30
2018-12-19T00:35:37.836Z,1.30
2018-12-19T00:38:18.306Z,1.30
2018-12-19T00:40:59.047Z,1.40
2018-12-19T00:43:44.936Z,1.30
2018-12-19T00:46:22.349Z,1.30
2018-12-19T00:49:03.299Z,1.20
2018-12-19T00:51:36.550Z,1.20
2018-12-19T00:54:15.277Z,1.30
2018-12-19T00:56:52.210Z,1.20
2018-12-19T00:59:32.586Z,1.20
2018-12-19T01:02:14.921Z,1.30
2018-12-19T01:04:57.560Z,1.30
2018-12-19T01:07:34.755Z,1.30
2018-12-19T01:10:15.692Z,1.30
2018-12-19T01:12:58.710Z,1.30
2018-12-19T01:15:29.366Z,1.30
2018-12-19T01:18:08.893Z,1.30
2018-12-19T01:20:48.109Z,1.30
2018-12-19T01:23:26.549Z,1.30
2018-12-19T01:26:01.962Z,1.30
2018-12-19T01:28:44.029Z,1.30
2018-12-19T01:31:14.990Z,1.30
2018-12-19T01:33:59.111Z,1.30
2018-12-19T01:36:38.196Z,1.40
2018-12-19T01:39:22.515Z,1.40
2018-12-19T01:42:00.857Z,1.50
2018-12-19T01:44:45.225Z,1.50
2018-12-19T01:47:25.812Z,1.50
2018-12-19T01:50:09.681Z,1.50
2018-12-19T01:52:47.615Z,1.50
2018-12-19T01:55:26.804Z,1.50
2018-12-19T01:58:06.999Z,1.60
2018-12-19T02:00:38.263Z,1.60
2018-12-19T02:03:14.545Z,1.70
2018-12-19T02:05:55.376Z,1.70
2018-12-19T02:08:34.140Z,1.70
2018-12-19T02:11:18.830Z,1.70
2018-12-19T02:13:58.121Z,1.80
2018-12-19T02:16:40.838Z,1.80
2018-12-19T02:19:22.879Z,1.80
2018-12-19T02:22:02.365Z,1.80
2018-12-19T02:24:32.040Z,1.80
2018-12-19T02:27:01.646Z,1.80
2018-12-19T02:29:30.558Z,1.80
2018-12-19T02:32:11.733Z,1.80
2018-12-19T02:34:50.649Z,1.90
2018-12-19T02:37:29.512Z,1.90
2018-12-19T02:40:08.228Z,1.90
2018-12-19T02:42:48.002Z,1.90
2018-12-19T02:45:27.382Z,2.00
2018-12-19T02:48:07.149Z,1.90
2018-12-19T02:50:48.741Z,2.00
2018-12-19T02:53:30.881Z,2.10
2018-12-19T02:56:10.800Z,2.10
2018-12-19T02:58:46.409Z,2.20
2018-12-19T03:01:29.107Z,2.20
2018-12-19T03:04:06.168Z,2.20
2018-12-19T03:06:46.388Z,2.20
2018-12-19T03:09:26.455Z,2.10
2018-12-19T03:12:06.542Z,2.10
2018-12-19T03:14:47.386Z,2.10
2018-12-19T03:17:28.896Z,2.10
2018-12-19T03:20:10.713Z,2.10
2018-12-19T03:22:47.030Z,2.00
2018-12-19T03:25:31.068Z,2.00
2018-12-19T03:28:10.263Z,1.90
2018-12-19T03:30:41.001Z,1.90
2018-12-19T03:33:18.996Z,1.80
2018-12-19T03:35:57.552Z,1.80
2018-12-19T03:38:37.422Z,1.80
2018-12-19T03:41:15.043Z,1.80
2018-12-19T03:43:54.591Z,1.80
2018-12-19T03:46:34.799Z,1.70
2018-12-19T03:49:16.088Z,1.70
2018-12-19T03:51:57.147Z,1.70
2018-12-19T03:54:38.644Z,1.70
2018-12-19T03:57:19.757Z,1.70
2018-12-19T03:59:58.913Z,1.70
2018-12-19T04:02:39.368Z,1.70
2018-12-19T04:05:21.978Z,1.70
2018-12-19T04:08:00.621Z,1.60
2018-12-19T04:10:40.171Z,1.70
2018-12-19T04:13:19.777Z,1.70
2018-12-19T04:16:03.470Z,1.70
2018-12-19T04:18:41.213Z,1.70
2018-12-19T04:21:23.178Z,1.70
2018-12-19T04:23:58.843Z,1.70
2018-12-19T04:26:39.382Z,1.70
2018-12-19T04:29:08.880Z,1.70
2018-12-19T04:31:48.491Z,1.70
2018-12-19T04:34:26.705Z,1.70
2018-12-19T04:37:06.697Z,1.70
2018-12-19T04:39:48.564Z,1.70
2018-12-19T04:42:27.327Z,1.70
2018-12-19T04:45:00.475Z,1.80
2018-12-19T04:47:37.860Z,1.80
2018-12-19T04:50:19.102Z,1.70
2018-12-19T04:52:58.995Z,1.70
2018-12-19T04:55:37.255Z,1.70
2018-12-19T04:58:17.752Z,1.70
2018-12-19T05:00:51.082Z,1.70
2018-12-19T05:03:28.345Z,1.70
2018-12-19T05:06:10.171Z,1.70
2018-12-19T05:08:47.528Z,1.80
2018-12-19T05:11:35.404Z,1.70
2018-12-19T05:14:10.047Z,1.70
2018-12-19T05:16:50.615Z,1.70
2018-12-19T05:19:32.349Z,1.70
2018-12-19T05:22:10.088Z,1.80
2018-12-19T05:24:50.055Z,1.80
2018-12-19T05:27:28.595Z,1.80
2018-12-19T05:30:10.313Z,1.80
2018-12-19T05:32:43.485Z,1.80
2018-12-19T05:35:18.580Z,1.90
2018-12-19T05:37:54.462Z,1.90
2018-12-19T05:40:34.038Z,2.00
2018-12-19T05:43:16.470Z,2.00
2018-12-19T05:45:46.607Z,2.00
2018-12-19T05:48:28.399Z,2.00
2018-12-19T05:51:08.218Z,1.90
2018-12-19T05:53:49.584Z,1.90
2018-12-19T05:56:31.421Z,1.90
2018-12-19T05:59:12.690Z,1.90
2018-12-19T06:01:44.330Z,2.00
2018-12-19T06:04:22.218Z,1.90
2018-12-19T06:07:01.809Z,1.90
2018-12-19T06:09:44.824Z,1.90
2018-12-19T06:12:28.665Z,2.00
2018-12-19T06:15:01.178Z,2.00
2018-12-19T06:17:40.126Z,1.90
2018-12-19T06:20:14.457Z,1.90
2018-12-19T06:22:50.744Z,1.80
2018-12-19T06:25:21.597Z,1.80
2018-12-19T06:28:01.382Z,1.80
2018-12-19T06:30:33.114Z,1.80
2018-12-19T06:33:13.698Z,1.80
2018-12-19T06:35:53.317Z,1.70
2018-12-19T06:38:29.895Z,1.70
2018-12-19T06:41:09.151Z,1.70
2018-12-19T06:43:51.405Z,1.60
2018-12-19T06:46:23.035Z,1.60
2018-12-19T06:49:04.313Z,1.60
2018-12-19T06:51:49.737Z,1.60
2018-12-19T06:54:28.344Z,1.60
2018-12-19T06:57:09.606Z,1.60
2018-12-19T06:59:49.823Z,1.60
2018-12-19T07:02:29.416Z,1.70
2018-12-19T07:05:10.606Z,1.70
2018-12-19T07:07:48.623Z,1.70
2018-12-19T07:10:27.407Z,1.70
2018-12-19T07:13:11.149Z,1.70
2018-12-19T07:15:42.629Z,1.70
2018-12-19T07:18:14.594Z,1.70
2018-12-19T07:20:54.045Z,1.70
2018-12-19T07:23:38.653Z,1.70
2018-12-19T07:26:21.882Z,1.70
2018-12-19T07:29:05.528Z,1.70
2018-12-19T07:31:50.639Z,1.70
2018-12-19T07:34:30.256Z,1.70
2018-12-19T07:37:02.560Z,1.70
2018-12-19T07:39:36.413Z,1.80
2018-12-19T07:42:14.046Z,1.80
2018-12-19T07:44:46.396Z,1.70
2018-12-19T07:47:21.186Z,1.70
2018-12-19T07:50:01.468Z,1.80
2018-12-19T07:52:42.938Z,1.80
2018-12-19T07:55:19.464Z,1.90
2018-12-19T07:57:59.870Z,1.90
2018-12-19T08:00:41.258Z,1.90
2018-12-19T08:03:21.334Z,1.90
2018-12-19T08:06:00.991Z,2.00
2018-12-19T08:08:39.378Z,2.00
2018-12-19T08:11:19.823Z,2.00
2018-12-19T08:13:59.651Z,2.00
2018-12-19T08:16:37.332Z,2.10
2018-12-19T08:19:08.061Z,2.10
2018-12-19T08:21:45.960Z,2.10
2018-12-19T08:24:24.201Z,2.20
2018-12-19T08:27:05.147Z,2.20
2018-12-19T08:29:44.676Z,2.20
2018-12-19T08:32:23.772Z,2.20
2018-12-19T08:35:10.615Z,2.20
2018-12-19T08:37:54.159Z,2.20
2018-12-19T08:40:34.022Z,2.20
2018-12-19T08:43:15.011Z,2.30
2018-12-19T08:45:54.631Z,2.30
2018-12-19T08:48:37.596Z,2.30
2018-12-19T08:51:18.539Z,2.30
2018-12-19T08:54:01.227Z,2.30
2018-12-19T08:56:42.340Z,2.30
2018-12-19T08:59:24.168Z,2.30
2018-12-19T09:02:05.024Z,2.40
2018-12-19T09:04:43.981Z,2.40
2018-12-19T09:07:23.652Z,2.40
2018-12-19T09:10:03.342Z,2.50
2018-12-19T09:12:45.688Z,2.50
2018-12-19T09:15:28.404Z,2.50
2018-12-19T09:18:03.390Z,2.50
2018-12-19T09:23:30.273Z,2.50
2018-12-19T09:26:11.935Z,2.50
2018-12-19T09:28:54.704Z,2.60
2018-12-19T09:31:34.818Z,2.60
2018-12-19T09:34:13.718Z,2.60
2018-12-19T09:36:56.773Z,2.60
2018-12-19T09:39:33.842Z,2.50
2018-12-19T09:42:20.257Z,2.60
2018-12-19T09:45:00.527Z,2.50
2018-12-19T09:47:42.689Z,2.60
2018-12-19T09:50:19.677Z,2.60
2018-12-19T09:53:01.292Z,2.60
2018-12-19T09:55:43.387Z,2.60
2018-12-19T09:58:25.730Z,2.50
2018-12-19T10:01:05.956Z,2.50
2018-12-19T10:03:43.777Z,2.50
2018-12-19T10:06:20.723Z,2.60
2018-12-19T10:09:05.687Z,2.70
2018-12-19T10:11:45.976Z,2.70
2018-12-19T10:14:27.445Z,2.70
2018-12-19T10:17:07.883Z,2.70
2018-12-19T10:19:55.026Z,2.70
2018-12-19T10:22:42.739Z,2.80
2018-12-19T10:25:21.983Z,2.80
2018-12-19T10:28:06.565Z,2.80
2018-12-19T10:30:56.887Z,2.90
2018-12-19T10:33:42.779Z,2.90
2018-12-19T10:36:28.176Z,2.80
2018-12-19T10:39:19.514Z,2.80
2018-12-19T10:42:02.186Z,2.80
2018-12-19T10:44:45.775Z,2.80
2018-12-19T10:47:29.298Z,2.80
2018-12-19T10:50:09.427Z,2.90
2018-12-19T10:52:53.327Z,2.90
2018-12-19T10:55:37.550Z,2.90
2018-12-19T10:58:19.518Z,3.00
2018-12-19T11:01:07.061Z,3.00
2018-12-19T11:03:52.506Z,3.00
2018-12-19T11:06:37.674Z,3.00
2018-12-19T11:09:22.316Z,3.00
2018-12-19T11:12:09.409Z,3.00
2018-12-19T11:14:54.432Z,3.00
2018-12-19T11:17:39.423Z,3.00
2018-12-19T11:20:24.531Z,3.00
2018-12-19T11:23:10.306Z,3.00
2018-12-19T11:25:51.189Z,3.10
2018-12-19T11:28:35.064Z,3.10
2018-12-19T11:31:18.089Z,3.20
2018-12-19T11:34:03.779Z,3.20
2018-12-19T11:36:46.022Z,3.10
2018-12-19T11:39:37.438Z,3.20
2018-12-19T11:42:17.584Z,3.20
2018-12-19T11:45:00.947Z,3.10
2018-12-19T11:47:40.568Z,3.10
2018-12-19T11:50:18.830Z,3.00
2018-12-19T11:52:57.442Z,3.10
2018-12-19T11:55:34.549Z,3.10
2018-12-19T11:58:17.054Z,3.10
2018-12-19T12:00:56.960Z,3.10
2018-12-19T12:03:35.460Z,3.10
2018-12-19T12:06:15.475Z,3.10
2018-12-19T12:08:55.667Z,3.10
2018-12-19T12:11:33.012Z,3.10
2018-12-19T12:14:09.123Z,3.20
2018-12-19T12:16:49.070Z,3.20
2018-12-19T12:19:28.962Z,3.20
2018-12-19T12:22:06.606Z,3.20
2018-12-19T12:24:46.871Z,3.20
2018-12-19T12:27:24.944Z,3.20
2018-12-19T12:30:06.443Z,3.20
2018-12-19T12:32:43.306Z,3.20
2018-12-19T12:35:21.578Z,3.30
2018-12-19T12:37:57.746Z,3.30
2018-12-19T12:40:39.914Z,3.30
2018-12-19T12:43:20.499Z,3.30
2018-12-19T12:46:00.802Z,3.30
2018-12-19T12:48:42.721Z,3.30
2018-12-19T12:51:18.713Z,3.40
2018-12-19T12:53:57.355Z,3.40
2018-12-19T12:56:34.373Z,3.30
2018-12-19T12:59:16.493Z,3.40
2018-12-19T13:01:56.258Z,3.30
2018-12-19T13:04:36.601Z,3.40
2018-12-19T13:07:16.547Z,3.40
2018-12-19T13:09:56.769Z,3.40
2018-12-19T13:12:36.955Z,3.40
2018-12-19T13:15:19.276Z,3.30
2018-12-19T13:17:58.527Z,3.30
2018-12-19T13:20:30.296Z,3.30
2018-12-19T13:23:13.579Z,3.30
2018-12-19T13:25:50.145Z,3.30
2018-12-19T13:28:32.044Z,3.30
2018-12-19T13:31:08.760Z,3.30
2018-12-19T13:33:49.504Z,3.30
2018-12-19T13:36:25.723Z,3.30
2018-12-19T13:39:03.820Z,3.40
2018-12-19T13:41:38.808Z,3.40
2018-12-19T13:44:19.199Z,3.40
2018-12-19T13:46:58.047Z,3.40
2018-12-19T13:49:37.591Z,3.40
2018-12-19T13:52:15.483Z,3.50
2018-12-19T13:54:53.290Z,3.50
2018-12-19T13:57:32.243Z,3.50
2018-12-19T14:00:13.443Z,3.50
2018-12-19T14:02:48.417Z,3.60
2018-12-19T14:05:33.852Z,3.60
2018-12-19T14:08:15.444Z,3.60
2018-12-19T14:10:54.565Z,3.50
2018-12-19T14:13:42.002Z,3.50
2018-12-19T14:16:17.857Z,3.50
2018-12-19T14:18:59.061Z,3.50
2018-12-19T14:21:42.980Z,3.50
2018-12-19T14:24:22.003Z,3.50
2018-12-19T14:27:01.739Z,3.50
2018-12-19T14:29:41.383Z,3.50
2018-12-19T14:32:21.977Z,3.40
2018-12-19T14:35:01.221Z,3.50
2018-12-19T14:37:37.195Z,3.40
2018-12-19T14:40:18.208Z,3.40
2018-12-19T14:42:54.044Z,3.40
2018-12-19T14:45:37.717Z,3.40
2018-12-19T14:48:15.685Z,3.40
2018-12-19T14:50:54.352Z,3.40
2018-12-19T14:53:29.751Z,3.40
2018-12-19T14:56:09.989Z,3.40
2018-12-19T14:58:48.363Z,3.50
2018-12-19T15:01:26.175Z,3.50
2018-12-19T15:04:06.304Z,3.50
2018-12-19T15:06:43.691Z,3.50
2018-12-19T15:09:21.133Z,3.50
2018-12-19T15:11:59.124Z,3.50
2018-12-19T15:14:37.177Z,3.50
2018-12-19T15:17:17.131Z,3.50
2018-12-19T15:19:54.203Z,3.50
2018-12-19T15:22:33.974Z,3.60
2018-12-19T15:25:12.240Z,3.50
2018-12-19T15:27:54.003Z,3.50
2018-12-19T15:30:31.997Z,3.50
2018-12-19T15:33:11.536Z,3.50
2018-12-19T15:35:51.106Z,3.40
2018-12-19T15:38:32.771Z,3.40
2018-12-19T15:41:09.595Z,3.40
2018-12-19T15:43:42.233Z,3.50
2018-12-19T15:46:14.324Z,3.50
2018-12-19T15:48:45.035Z,3.50
2018-12-19T15:51:18.911Z,3.50
2018-12-19T15:53:51.841Z,3.50
2018-12-19T15:56:25.001Z,3.60
2018-12-19T15:59:00.331Z,3.60
2018-12-19T16:01:38.020Z,3.60
2018-12-19T16:04:16.315Z,3.50
2018-12-19T16:06:54.207Z,3.50
2018-12-19T16:09:30.002Z,3.50
2018-12-19T16:12:06.213Z,3.50
2018-12-19T16:14:43.541Z,3.50
2018-12-19T16:17:22.004Z,3.50
2018-12-19T16:19:55.775Z,3.50
2018-12-19T16:22:31.239Z,3.50
2018-12-19T16:25:03.184Z,3.40
2018-12-19T16:27:40.839Z,3.40
2018-12-19T16:30:12.067Z,3.40
2018-12-19T16:32:42.825Z,3.40
2018-12-19T16:35:21.434Z,3.40
2018-12-19T16:37:58.704Z,3.50
2018-12-19T16:40:38.803Z,3.50
2018-12-19T16:43:20.874Z,3.40
2018-12-19T16:46:01.584Z,3.40
2018-12-19T16:48:40.457Z,3.40
2018-12-19T16:51:21.447Z,3.40
2018-12-19T16:54:02.376Z,3.40
2018-12-19T16:56:43.334Z,3.40
2018-12-19T16:59:25.183Z,3.50
2018-12-19T17:02:02.541Z,3.50
2018-12-19T17:04:40.715Z,3.50
2018-12-19T17:07:19.134Z,3.50
2018-12-19T17:10:00.105Z,3.50
2018-12-19T17:12:38.872Z,3.50
2018-12-19T17:15:17.726Z,3.50
2018-12-19T17:17:53.884Z,3.50
2018-12-19T17:20:31.448Z,3.50
2018-12-19T17:23:09.787Z,3.50
2018-12-19T17:25:47.739Z,3.60
2018-12-19T17:28:27.664Z,3.60
2018-12-19T17:31:05.218Z,3.60
2018-12-19T17:33:45.164Z,3.60
2018-12-19T17:36:24.612Z,3.70
2018-12-19T17:39:01.767Z,3.70
2018-12-19T17:41:38.652Z,3.60
2018-12-19T17:44:18.015Z,3.60
2018-12-19T17:46:59.429Z,3.60
2018-12-19T17:49:44.083Z,3.60
2018-12-19T17:52:20.642Z,3.60
2018-12-19T17:55:00.886Z,3.60
2018-12-19T17:57:40.276Z,3.60
2018-12-19T18:00:20.547Z,3.60
2018-12-19T18:02:57.931Z,3.50
2018-12-19T18:05:37.399Z,3.50
2018-12-19T18:08:19.092Z,3.50
2018-12-19T18:10:55.478Z,3.50
2018-12-19T18:13:37.144Z,3.50
2018-12-19T18:16:17.689Z,3.50
2018-12-19T18:18:56.135Z,3.40
2018-12-19T18:21:36.277Z,3.50
2018-12-19T18:24:16.979Z,3.40
2018-12-19T18:26:53.859Z,3.40
2018-12-19T18:29:31.173Z,3.40
2018-12-19T18:32:09.240Z,3.30
2018-12-19T18:34:47.583Z,3.40
2018-12-19T18:37:27.348Z,3.40
2018-12-19T18:40:10.294Z,3.40
2018-12-19T18:42:51.436Z,3.40
2018-12-19T18:45:28.881Z,3.40
2018-12-19T18:48:04.288Z,3.40
2018-12-19T18:50:42.054Z,3.40
2018-12-19T18:53:21.775Z,3.40
2018-12-19T18:56:02.619Z,3.40
2018-12-19T18:58:41.988Z,3.40
2018-12-19T19:01:20.790Z,3.40
2018-12-19T19:03:59.407Z,3.30
2018-12-19T19:06:40.129Z,3.30
2018-12-19T19:09:19.693Z,3.30
2018-12-19T19:11:50.683Z,3.30
2018-12-19T19:14:19.825Z,3.30
2018-12-19T19:16:54.768Z,3.30
2018-12-19T19:19:32.586Z,3.30
2018-12-19T19:22:07.040Z,3.30
2018-12-19T19:24:43.196Z,3.30
2018-12-19T19:27:20.213Z,3.30
2018-12-19T19:30:08.101Z,3.20
2018-12-19T19:32:48.111Z,3.20
2018-12-19T19:35:26.326Z,3.20
2018-12-19T19:38:04.200Z,3.20
2018-12-19T19:40:38.345Z,3.20
2018-12-19T19:43:16.505Z,3.20
2018-12-19T19:45:46.952Z,3.20
2018-12-19T19:48:23.163Z,3.20
2018-12-19T19:51:06.254Z,3.20
2018-12-19T19:53:41.993Z,3.20
2018-12-19T19:56:21.068Z,3.20
2018-12-19T19:58:59.516Z,3.30
2018-12-19T20:01:38.025Z,3.30
2018-12-19T20:04:16.511Z,3.30
2018-12-19T20:06:59.273Z,3.30
2018-12-19T20:09:33.767Z,3.30
2018-12-19T20:12:09.427Z,3.20
2018-12-19T20:14:41.357Z,3.20
2018-12-19T20:17:19.727Z,3.20
2018-12-19T20:19:50.873Z,3.30
2018-12-19T20:22:31.094Z,3.30
2018-12-19T20:25:08.055Z,3.30
2018-12-19T20:27:44.728Z,3.30
2018-12-19T20:30:19.762Z,3.30
2018-12-19T20:32:49.858Z,3.30
2018-12-19T20:35:29.037Z,3.30
2018-12-19T20:38:07.531Z,3.30
2018-12-19T20:40:53.156Z,3.30
2018-12-19T20:43:27.161Z,3.30
2018-12-19T20:45:58.726Z,3.30
2018-12-19T20:48:41.121Z,3.20
2018-12-19T20:51:16.716Z,3.20
2018-12-19T20:54:09.796Z,3.20
2018-12-19T20:56:44.080Z,3.10
2018-12-19T20:59:21.475Z,3.10
2018-12-19T21:01:50.504Z,3.10
2018-12-19T21:04:21.043Z,3.10
2018-12-19T21:06:52.994Z,3.10
2018-12-19T21:09:33.029Z,3.10
2018-12-19T21:12:14.901Z,3.00
2018-12-19T21:14:56.715Z,3.10
2018-12-19T21:17:36.342Z,3.10
2018-12-19T21:20:07.628Z,3.10
2018-12-19T21:22:41.851Z,3.00
2018-12-19T21:25:17.690Z,3.00
2018-12-19T21:27:52.693Z,3.10
2018-12-19T21:30:30.749Z,3.10
2018-12-19T21:33:13.975Z,3.00
2018-12-19T21:35:46.792Z,3.00
2018-12-19T21:38:25.554Z,3.10
2018-12-19T21:41:06.307Z,3.10
2018-12-19T21:43:43.933Z,3.10
2018-12-19T21:46:21.055Z,3.10
2018-12-19T21:48:57.264Z,3.00
2018-12-19T21:51:32.921Z,3.00
2018-12-19T21:54:07.407Z,3.10
2018-12-19T21:56:45.221Z,3.10
2018-12-19T21:59:21.481Z,3.10
2018-12-19T22:02:05.690Z,3.10
2018-12-19T22:04:36.518Z,3.10
2018-12-19T22:07:05.970Z,3.20
2018-12-19T22:09:44.177Z,3.20
2018-12-19T22:12:19.536Z,3.10
2018-12-19T22:14:50.736Z,3.10
2018-12-19T22:17:30.599Z,3.10
2018-12-19T22:20:01.547Z,3.20
2018-12-19T22:22:33.549Z,3.10
2018-12-19T22:25:11.584Z,3.10
2018-12-19T22:27:39.961Z,3.10
2018-12-19T22:30:15.633Z,3.10
2018-12-19T22:32:50.399Z,3.10
2018-12-19T22:35:23.685Z,3.10
2018-12-19T22:37:57.181Z,3.10
2018-12-19T22:40:35.136Z,3.10
2018-12-19T22:43:09.296Z,3.00
2018-12-19T22:45:44.998Z,3.10
2018-12-19T22:48:21.148Z,3.10
2018-12-19T22:50:54.585Z,3.10
2018-12-19T22:53:34.000Z,3.10
2018-12-19T22:56:09.033Z,3.10
2018-12-19T22:58:45.335Z,3.20
2018-12-19T23:01:27.610Z,3.10
2018-12-19T23:04:11.936Z,3.20
2018-12-19T23:06:51.180Z,3.20
2018-12-19T23:09:36.912Z,3.20
2018-12-19T23:12:13.597Z,3.20
2018-12-19T23:14:54.677Z,3.10
2018-12-19T23:17:37.637Z,3.10
2018-12-19T23:20:17.952Z,3.10
2018-12-19T23:22:51.490Z,3.10
2018-12-19T23:25:26.721Z,3.10
2018-12-19T23:28:02.671Z,3.10
2018-12-19T23:30:42.294Z,3.10
2018-12-19T23:33:19.480Z,3.10
2018-12-19T23:35:52.815Z,3.10
2018-12-19T23:38:29.808Z,3.10
2018-12-19T23:41:11.638Z,3.20
2018-12-19T23:43:49.186Z,3.20
2018-12-19T23:46:23.953Z,3.30
2018-12-19T23:48:59.082Z,3.20
2018-12-19T23:51:38.873Z,3.20
2018-12-19T23:54:12.251Z,3.20
2018-12-19T23:56:47.782Z,3.20
2018-12-19T23:59:24.466Z,3.20
